createdAt,value
2023-02-12T00:00:08.101Z,97302.7
2023-02-12T00:01:10.402Z,97302.6
2023-02-12T00:02:12.754Z,97310.5
2023-02-12T00:03:15.055Z,97307.9
2023-02-12T00:04:17.584Z,97309.5
2023-02-12T00:05:19.827Z,97305.6
2023-02-12T00:06:22.398Z,97305.3
2023-02-12T00:07:24.671Z,97295.7
2023-02-12T00:08:27.191Z,97297.6
2023-02-12T00:09:29.492Z,97302.5
2023-02-12T00:10:31.713Z,97299.2
2023-02-12T00:11:34.339Z,97302.3
2023-02-12T00:12:36.262Z,97307.1
2023-02-12T00:13:38.830Z,97306.9
2023-02-12T00:14:41.433Z,97316.1
2023-02-12T00:15:44.276Z,97312.4
2023-02-12T00:16:46.883Z,97312.5
2023-02-12T00:17:49.141Z,97318.5
2023-02-12T00:18:51.349Z,97312.7
2023-02-12T00:19:53.594Z,97310
2023-02-12T00:20:56.268Z,97308.5
2023-02-12T00:21:58.789Z,97308.5
2023-02-12T00:23:01.048Z,97308.7
2023-02-12T00:24:03.566Z,97304.6
2023-02-12T00:25:05.501Z,97306.5
2023-02-12T00:26:08.008Z,97309.2
2023-02-12T00:27:10.504Z,97303
2023-02-12T00:28:13.343Z,97305.5
2023-02-12T00:29:15.792Z,97305
2023-02-12T00:30:18.294Z,97301
2023-02-12T00:31:21.722Z,97302.4
2023-02-12T00:32:24.460Z,97301
2023-02-12T00:33:26.415Z,97303.9
2023-02-12T00:34:28.356Z,97305.4
2023-02-12T00:35:30.884Z,97309.6
2023-02-12T00:36:33.456Z,97308.6
2023-02-12T00:37:35.972Z,97312.8
2023-02-12T00:38:38.228Z,97311.9
2023-02-12T00:39:40.824Z,97310.6
2023-02-12T00:40:43.331Z,97310.4
2023-02-12T00:41:45.673Z,97310.7
2023-02-12T00:42:48.186Z,97310.4
2023-02-12T00:43:50.685Z,97307.4
2023-02-12T00:44:53.202Z,97311.6
2023-02-12T00:45:57.892Z,97309.2
2023-02-12T00:47:01.039Z,97306.6
2023-02-12T00:48:03.536Z,97303.4
2023-02-12T00:49:05.754Z,97299.4
2023-02-12T00:50:08.010Z,97297.1
2023-02-12T00:51:10.598Z,97297
2023-02-12T00:52:13.179Z,97294.6
2023-02-12T00:53:15.179Z,97293.5
2023-02-12T00:54:17.242Z,97297.5
2023-02-12T00:55:19.478Z,97295.2
2023-02-12T00:56:21.736Z,97296.9
2023-02-12T00:57:24.250Z,97296
2023-02-12T00:58:26.794Z,97299
2023-02-12T00:59:29.040Z,97303.5
2023-02-12T01:00:31.290Z,97301.7
2023-02-12T01:01:33.753Z,97303.1
2023-02-12T01:02:36.118Z,97306.1
2023-02-12T01:03:38.377Z,97305.5
2023-02-12T01:04:40.546Z,97308
2023-02-12T01:05:43.116Z,97305.6
2023-02-12T01:06:45.611Z,97304.5
2023-02-12T01:07:48.121Z,97304.2
2023-02-12T01:08:50.379Z,97306.2
2023-02-12T01:09:52.918Z,97303.2
2023-02-12T01:10:55.441Z,97304.9
2023-02-12T01:11:57.693Z,97304.3
2023-02-12T01:12:59.956Z,97300.8
2023-02-12T01:14:01.891Z,97304.6
2023-02-12T01:15:04.432Z,97306.5
2023-02-12T01:16:07.329Z,97303.7
2023-02-12T01:17:09.962Z,97306.8
2023-02-12T01:18:12.588Z,97306.6
2023-02-12T01:19:15.340Z,97300
2023-02-12T01:20:17.575Z,97297
2023-02-12T01:21:19.870Z,97296
2023-02-12T01:22:22.090Z,97302.1
2023-02-12T01:23:24.635Z,97296.8
2023-02-12T01:24:27.180Z,97296.1
2023-02-12T01:25:29.852Z,97293.1
2023-02-12T01:26:32.110Z,97284.3
2023-02-12T01:27:34.364Z,97286.1
2023-02-12T01:28:36.845Z,97282
2023-02-12T01:29:39.463Z,97286.5
2023-02-12T01:30:42.205Z,97287.9
2023-02-12T01:31:45.217Z,97299
2023-02-12T01:32:47.665Z,97299.6
2023-02-12T01:33:49.912Z,97297.9
2023-02-12T01:34:51.872Z,97305.9
2023-02-12T01:35:56.064Z,97301.3
2023-02-12T01:36:58.990Z,97304
2023-02-12T01:38:01.504Z,97307.8
2023-02-12T01:39:04.162Z,97309.4
2023-02-12T01:40:06.386Z,97315.2
2023-02-12T01:41:08.925Z,97315.9
2023-02-12T01:42:10.567Z,97310.3
2023-02-12T01:43:13.126Z,97313.8
2023-02-12T01:44:15.400Z,97312.4
2023-02-12T01:45:17.917Z,97317.3
2023-02-12T01:46:20.697Z,97313.8
2023-02-12T01:47:23.312Z,97315.8
2023-02-12T01:48:25.538Z,97321.4
2023-02-12T01:49:27.806Z,97315.3
2023-02-12T01:50:30.087Z,97319.7
2023-02-12T01:51:32.324Z,97314.8
2023-02-12T01:52:34.545Z,97317.7
2023-02-12T01:53:36.763Z,97308.1
2023-02-12T01:54:39.067Z,97304.4
2023-02-12T01:55:41.617Z,97309.7
2023-02-12T01:56:44.160Z,97312.3
2023-02-12T01:57:46.803Z,97307.4
2023-02-12T01:58:49.012Z,97312.2
2023-02-12T01:59:51.539Z,97314
2023-02-12T02:00:54.036Z,97315.1
2023-02-12T02:01:56.653Z,97313.2
2023-02-12T02:02:59.745Z,97311.2
2023-02-12T02:04:02.405Z,97309.8
2023-02-12T02:05:04.414Z,97308.2
2023-02-12T02:06:06.896Z,97307.1
2023-02-12T02:07:09.138Z,97308.9
2023-02-12T02:08:11.351Z,97307.9
2023-02-12T02:09:13.838Z,97309
2023-02-12T02:10:16.377Z,97310.5
2023-02-12T02:11:18.629Z,97304.7
2023-02-12T02:12:21.165Z,97308
2023-02-12T02:13:23.660Z,97307.9
2023-02-12T02:14:25.871Z,97311.6
2023-02-12T02:15:28.366Z,97305.8
2023-02-12T02:16:31.221Z,97307.8
2023-02-12T02:17:33.938Z,97304.1
2023-02-12T02:18:36.172Z,97303.9
2023-02-12T02:19:38.422Z,97303.6
2023-02-12T02:20:40.982Z,97301.9
2023-02-12T02:21:43.487Z,97304.1
2023-02-12T02:22:45.450Z,97300.1
2023-02-12T02:23:47.920Z,97301.6
2023-02-12T02:24:49.894Z,97298.2
2023-02-12T02:25:52.479Z,97298
2023-02-12T02:27:00.632Z,97294.6
2023-02-12T02:28:01.850Z,97296.8
2023-02-12T02:29:04.437Z,97299.2
2023-02-12T02:30:06.956Z,97299.4
2023-02-12T02:31:09.653Z,97302.5
2023-02-12T02:32:12.775Z,97307.3
2023-02-12T02:33:15.035Z,97301.4
2023-02-12T02:34:17.539Z,97299.9
2023-02-12T02:35:20.046Z,97294.4
2023-02-12T02:37:28.091Z,97297.6
2023-02-12T02:38:30.354Z,97297.4
2023-02-12T02:39:32.855Z,97299.4
2023-02-12T02:40:35.585Z,97299.5
2023-02-12T02:41:38.103Z,97296.9
2023-02-12T02:42:40.342Z,97294.4
2023-02-12T02:43:42.570Z,97293.3
2023-02-12T02:44:45.075Z,97291.3
2023-02-12T02:45:47.053Z,97288
2023-02-12T02:46:49.877Z,97286.9
2023-02-12T02:47:52.576Z,97286.5
2023-02-12T02:48:55.076Z,97285.4
2023-02-12T02:49:56.988Z,97286.9
2023-02-12T02:50:59.492Z,97284.7
2023-02-12T02:52:02.029Z,97288.4
2023-02-12T02:53:04.564Z,97290.1
2023-02-12T02:54:07.065Z,97287.3
2023-02-12T02:55:09.563Z,97286
2023-02-12T02:56:12.076Z,97283.9
2023-02-12T02:57:14.630Z,97287.7
2023-02-12T02:58:17.124Z,97285.1
2023-02-12T02:59:19.623Z,97284.3
2023-02-12T03:00:22.120Z,97283.1
2023-02-12T03:01:25.029Z,97277.9
2023-02-12T03:02:27.760Z,97274.7
2023-02-12T03:03:30.347Z,97273.7
2023-02-12T03:04:32.598Z,97276.5
2023-02-12T03:05:34.808Z,97277
2023-02-12T03:06:37.347Z,97279.9
2023-02-12T03:07:39.859Z,97280.5
2023-02-12T03:08:42.120Z,97282.8
2023-02-12T03:09:44.615Z,97283.3
2023-02-12T03:10:46.830Z,97285.3
2023-02-12T03:11:49.325Z,97284.8
2023-02-12T03:12:51.593Z,97283
2023-02-12T03:13:53.801Z,97283.6
2023-02-12T03:14:56.314Z,97284.7
2023-02-12T03:15:59.846Z,97285.5
2023-02-12T03:17:01.833Z,97286.9
2023-02-12T03:18:04.068Z,97287.2
2023-02-12T03:19:06.606Z,97290.8
2023-02-12T03:20:09.115Z,97292.8
2023-02-12T03:21:11.616Z,97293.4
2023-02-12T03:22:13.837Z,97293.1
2023-02-12T03:23:16.409Z,97293.8
2023-02-12T03:24:18.661Z,97299.3
2023-02-12T03:25:21.159Z,97298.7
2023-02-12T03:26:23.670Z,97298.7
2023-02-12T03:27:26.192Z,97302.8
2023-02-12T03:28:28.420Z,97302.2
2023-02-12T03:29:31.002Z,97306.3
2023-02-12T03:30:33.533Z,97306.5
2023-02-12T03:31:36.066Z,97304.4
2023-02-12T03:32:38.650Z,97310.5
2023-02-12T03:33:40.617Z,97305.1
2023-02-12T03:34:43.129Z,97305.7
2023-02-12T03:35:45.339Z,97305.7
2023-02-12T03:36:47.903Z,97310.4
2023-02-12T03:37:50.387Z,97313.4
2023-02-12T03:38:52.932Z,97315.7
2023-02-12T03:39:55.435Z,97313.7
2023-02-12T03:40:57.959Z,97315.8
2023-02-12T03:42:00.513Z,97317.3
2023-02-12T03:43:03.036Z,97312.3
2023-02-12T03:44:05.591Z,97313.9
2023-02-12T03:45:08.187Z,97310.5
2023-02-12T03:46:11.166Z,97309
2023-02-12T03:47:13.777Z,97307.9
2023-02-12T03:48:16.014Z,97303.5
2023-02-12T03:49:18.534Z,97305.7
2023-02-12T03:50:20.778Z,97304.4
2023-02-12T03:51:23.307Z,97305.9
2023-02-12T03:52:25.549Z,97308.6
2023-02-12T03:53:27.802Z,97309.2
2023-02-12T03:54:30.315Z,97308.7
2023-02-12T03:55:32.838Z,97308
2023-02-12T03:56:35.322Z,97303.9
2023-02-12T03:57:37.805Z,97307.3
2023-02-12T03:58:40.292Z,97307.1
2023-02-12T03:59:42.821Z,97307.1
2023-02-12T04:00:44.959Z,97307.5
2023-02-12T04:01:47.970Z,97301.9
2023-02-12T04:02:50.819Z,97306.2
2023-02-12T04:03:52.936Z,97305.5
2023-02-12T04:04:55.530Z,97305.2
2023-02-12T04:05:58.704Z,97306.3
2023-02-12T04:07:00.925Z,97311.3
2023-02-12T04:08:03.419Z,97309.8
2023-02-12T04:09:05.904Z,97310.3
2023-02-12T04:10:08.150Z,97310.3
2023-02-12T04:11:10.671Z,97312.7
2023-02-12T04:12:13.162Z,97313.2
2023-02-12T04:13:15.370Z,97322.5
2023-02-12T04:14:17.887Z,97319.5
2023-02-12T04:15:21.101Z,97320.8
2023-02-12T04:16:24.289Z,97322
2023-02-12T04:17:27.275Z,97323.6
2023-02-12T04:18:29.993Z,97322.7
2023-02-12T04:19:32.202Z,97322.9
2023-02-12T04:20:34.163Z,97324.8
2023-02-12T04:21:36.677Z,97327.9
2023-02-12T04:22:39.168Z,97325.6
2023-02-12T04:23:41.450Z,97331.8
2023-02-12T04:24:44.007Z,97329.4
2023-02-12T04:25:46.243Z,97330.4
2023-02-12T04:26:48.760Z,97325.2
2023-02-12T04:27:51.276Z,97329.9
2023-02-12T04:28:53.798Z,97323.4
2023-02-12T04:29:55.732Z,97322
2023-02-12T04:30:58.861Z,97324.3
2023-02-12T04:32:01.256Z,97324.1
2023-02-12T04:33:03.254Z,97325.4
2023-02-12T04:34:05.503Z,97331.6
2023-02-12T04:35:07.464Z,97330.2
2023-02-12T04:36:09.995Z,97330.6
2023-02-12T04:37:12.511Z,97334.7
2023-02-12T04:38:14.462Z,97336.4
2023-02-12T04:39:16.411Z,97336.9
2023-02-12T04:40:18.668Z,97343.9
2023-02-12T04:41:20.930Z,97338.3
2023-02-12T04:42:23.160Z,97339.1
2023-02-12T04:43:25.661Z,97342.2
2023-02-12T04:44:28.165Z,97344.9
2023-02-12T04:45:30.668Z,97345.6
2023-02-12T04:46:33.496Z,97345.6
2023-02-12T04:47:36.214Z,97340.8
2023-02-12T04:48:38.752Z,97340.2
2023-02-12T04:49:41.247Z,97342.8
2023-02-12T04:50:43.893Z,97348
2023-02-12T04:51:46.418Z,97338.7
2023-02-12T04:52:48.749Z,97350.6
2023-02-12T04:53:51.245Z,97340
2023-02-12T04:54:53.768Z,97348
2023-02-12T04:55:58.110Z,97349.8
2023-02-12T04:57:00.722Z,97343.7
2023-02-12T04:58:03.309Z,97345.4
2023-02-12T04:59:05.852Z,97347.3
2023-02-12T05:00:08.088Z,97349.3
2023-02-12T05:01:11.119Z,97344.9
2023-02-12T05:02:13.483Z,97349
2023-02-12T05:03:15.723Z,97348.8
2023-02-12T05:04:18.244Z,97346.7
2023-02-12T05:05:21.076Z,97341.2
2023-02-12T05:06:23.693Z,97340.4
2023-02-12T05:07:25.960Z,97340.4
2023-02-12T05:08:28.278Z,97344
2023-02-12T05:09:30.497Z,97340.8
2023-02-12T05:10:32.988Z,97338.2
2023-02-12T05:11:35.497Z,97336.4
2023-02-12T05:12:37.747Z,97334.8
2023-02-12T05:13:40.290Z,97337.4
2023-02-12T05:14:42.794Z,97341.6
2023-02-12T05:15:45.330Z,97342
2023-02-12T05:16:47.654Z,97341.3
2023-02-12T05:17:50.214Z,97343.5
2023-02-12T05:18:52.176Z,97345.3
2023-02-12T05:19:54.416Z,97350.3
2023-02-12T05:20:57.914Z,97352
2023-02-12T05:22:00.469Z,97350.5
2023-02-12T05:23:02.446Z,97354.5
2023-02-12T05:24:04.776Z,97356.4
2023-02-12T05:25:07.298Z,97358
2023-02-12T05:26:09.238Z,97359.3
2023-02-12T05:27:11.748Z,97361.5
2023-02-12T05:28:14.201Z,97357.2
2023-02-12T05:29:16.813Z,97359.2
2023-02-12T05:30:19.050Z,97358.7
2023-02-12T05:31:23.681Z,97356.5
2023-02-12T05:32:26.432Z,97358.1
2023-02-12T05:33:28.970Z,97362.2
2023-02-12T05:34:31.481Z,97360.1
2023-02-12T05:35:33.996Z,97357.8
2023-02-12T05:36:36.502Z,97364
2023-02-12T05:37:39.004Z,97363.5
2023-02-12T05:38:41.529Z,97371.1
2023-02-12T05:39:43.802Z,97370.1
2023-02-12T05:40:46.334Z,97373.6
2023-02-12T05:41:48.258Z,97375.3
2023-02-12T05:42:50.479Z,97377.7
2023-02-12T05:43:52.749Z,97376
2023-02-12T05:44:55.273Z,97372.5
2023-02-12T05:45:59.205Z,97374.5
2023-02-12T05:47:01.770Z,97374.3
2023-02-12T05:48:04.285Z,97372
2023-02-12T05:49:06.542Z,97373.9
2023-02-12T05:50:08.754Z,97372.3
2023-02-12T05:51:11.276Z,97371.2
2023-02-12T05:52:13.799Z,97371.9
2023-02-12T05:53:15.732Z,97367.3
2023-02-12T05:54:18.282Z,97370.4
2023-02-12T05:55:20.791Z,97371.5
2023-02-12T05:56:23.312Z,97370.4
2023-02-12T05:57:25.528Z,97371.7
2023-02-12T05:58:28.049Z,97367.1
2023-02-12T05:59:30.313Z,97364
2023-02-12T06:00:32.903Z,97366.1
2023-02-12T06:01:35.392Z,97371.8
2023-02-12T06:02:38.196Z,97371.6
2023-02-12T06:03:40.746Z,97370.7
2023-02-12T06:04:43.087Z,97371.8
2023-02-12T06:05:45.590Z,97369.9
2023-02-12T06:06:47.813Z,97372.6
2023-02-12T06:07:50.028Z,97373.3
2023-02-12T06:08:52.337Z,97371.9
2023-02-12T06:09:54.586Z,97368.2
2023-02-12T06:10:57.127Z,97370.2
2023-02-12T06:11:59.369Z,97368.6
2023-02-12T06:13:01.888Z,97371.3
2023-02-12T06:14:04.081Z,97371.3
2023-02-12T06:15:06.394Z,97375.3
2023-02-12T06:16:09.253Z,97378.3
2023-02-12T06:17:11.964Z,97378
2023-02-12T06:18:14.196Z,97381.9
2023-02-12T06:19:16.497Z,97381.5
2023-02-12T06:20:18.762Z,97383.2
2023-02-12T06:21:21.261Z,97386.7
2023-02-12T06:22:23.792Z,97381.4
2023-02-12T06:23:25.792Z,97384.5
2023-02-12T06:24:28.294Z,97384.1
2023-02-12T06:25:30.824Z,97388.9
2023-02-12T06:26:33.392Z,97392.2
2023-02-12T06:27:35.647Z,97387.8
2023-02-12T06:28:38.728Z,97389.4
2023-02-12T06:29:41.074Z,97393.9
2023-02-12T06:30:43.830Z,97398.2
2023-02-12T06:31:47.053Z,97398.2
2023-02-12T06:32:49.871Z,97397
2023-02-12T06:33:52.174Z,97402.4
2023-02-12T06:34:54.390Z,97399.7
2023-02-12T06:35:58.365Z,97399.6
2023-02-12T06:37:00.219Z,97400.8
2023-02-12T06:38:02.731Z,97401.7
2023-02-12T06:39:05.337Z,97404.3
2023-02-12T06:40:07.569Z,97405
2023-02-12T06:41:09.882Z,97403.6
2023-02-12T06:42:12.147Z,97405.4
2023-02-12T06:43:14.113Z,97408
2023-02-12T06:44:16.658Z,97405.6
2023-02-12T06:45:18.862Z,97400.8
2023-02-12T06:46:21.740Z,97407.2
2023-02-12T06:47:23.826Z,97406.5
2023-02-12T06:48:26.314Z,97409.5
2023-02-12T06:49:28.843Z,97407
2023-02-12T06:50:31.349Z,97408.6
2023-02-12T06:51:33.619Z,97409.4
2023-02-12T06:52:35.865Z,97408
2023-02-12T06:53:38.390Z,97409.5
2023-02-12T06:54:40.611Z,97406.9
2023-02-12T06:55:42.839Z,97414.3
2023-02-12T06:56:45.098Z,97410.7
2023-02-12T06:57:47.384Z,97408.7
2023-02-12T06:58:49.621Z,97411.6
2023-02-12T06:59:52.129Z,97408.7
2023-02-12T07:00:54.635Z,97406
2023-02-12T07:01:57.235Z,97408.1
2023-02-12T07:02:59.759Z,97406.5
2023-02-12T07:04:02.934Z,97404
2023-02-12T07:05:05.124Z,97407.6
2023-02-12T07:06:07.391Z,97403.3
2023-02-12T07:07:09.935Z,97405.9
2023-02-12T07:08:12.446Z,97405.9
2023-02-12T07:09:14.955Z,97405
2023-02-12T07:10:17.457Z,97409.1
2023-02-12T07:11:19.660Z,97405.4
2023-02-12T07:12:21.948Z,97407.3
2023-02-12T07:13:24.477Z,97408.7
2023-02-12T07:14:26.408Z,97410.3
2023-02-12T07:15:28.344Z,97408.2
2023-02-12T07:16:31.183Z,97406.9
2023-02-12T07:17:33.812Z,97413.3
2023-02-12T07:18:36.351Z,97410.9
2023-02-12T07:19:38.313Z,97410.8
2023-02-12T07:20:39.974Z,97409.8
2023-02-12T07:21:42.196Z,97409.7
2023-02-12T07:22:44.778Z,97411
2023-02-12T07:23:51.785Z,97415.6
2023-02-12T07:24:54.313Z,97414.5
2023-02-12T07:25:58.329Z,97412.8
2023-02-12T07:27:00.580Z,97411.2
2023-02-12T07:28:03.018Z,97414.1
2023-02-12T07:29:05.571Z,97410
2023-02-12T07:30:08.114Z,97409
2023-02-12T07:31:11.370Z,97417.1
2023-02-12T07:32:14.764Z,97412.4
2023-02-12T07:33:17.417Z,97411.7
2023-02-12T07:34:19.959Z,97412.6
2023-02-12T07:35:22.460Z,97405.3
2023-02-12T07:36:24.408Z,97409.9
2023-02-12T07:37:26.693Z,97408.1
2023-02-12T07:38:28.930Z,97406.6
2023-02-12T07:39:31.158Z,97403.6
2023-02-12T07:40:33.658Z,97405.3
2023-02-12T07:41:35.918Z,97402.5
2023-02-12T07:42:38.160Z,97407.2
2023-02-12T07:43:40.739Z,97401.2
2023-02-12T07:44:43.294Z,97403.7
2023-02-12T07:45:45.900Z,97398.7
2023-02-12T07:46:49.978Z,97401.8
2023-02-12T07:47:52.464Z,97402.1
2023-02-12T07:48:54.998Z,97399.2
2023-02-12T07:49:57.617Z,97397.8
2023-02-12T07:51:00.154Z,97400.5
2023-02-12T07:52:02.652Z,97400
2023-02-12T07:53:04.914Z,97397.5
2023-02-12T07:54:07.599Z,97397
2023-02-12T07:55:10.277Z,97393.3
2023-02-12T07:56:12.862Z,97396.4
2023-02-12T07:57:14.847Z,97396
2023-02-12T07:58:17.098Z,97391.9
2023-02-12T07:59:18.864Z,97390.8
2023-02-12T08:00:21.541Z,97397.8
2023-02-12T08:01:24.100Z,97394.5
2023-02-12T08:02:26.878Z,97396.7
2023-02-12T08:03:29.601Z,97397.3
2023-02-12T08:04:32.674Z,97396
2023-02-12T08:05:35.356Z,97392.8
2023-02-12T08:06:37.848Z,97396.8
2023-02-12T08:07:40.360Z,97402.5
2023-02-12T08:08:42.898Z,97398.3
2023-02-12T08:09:45.414Z,97396.4
2023-02-12T08:10:47.689Z,97394.4
2023-02-12T08:11:50.006Z,97394.6
2023-02-12T08:12:52.532Z,97392.6
2023-02-12T08:13:54.477Z,97392.3
2023-02-12T08:14:56.746Z,97397.9
2023-02-12T08:15:59.629Z,97393.5
2023-02-12T08:17:02.350Z,97394.3
2023-02-12T08:18:04.649Z,97394.5
2023-02-12T08:20:11.888Z,97393.5
2023-02-12T08:21:14.433Z,97395.4
2023-02-12T08:22:16.640Z,97392.2
2023-02-12T08:23:19.154Z,97389.9
2023-02-12T08:24:21.690Z,97389.7
2023-02-12T08:25:24.492Z,97387.7
2023-02-12T08:26:27.034Z,97391.1
2023-02-12T08:27:29.259Z,97387.7
2023-02-12T08:28:32.049Z,97392.4
2023-02-12T08:29:34.570Z,97397.3
2023-02-12T08:30:37.169Z,97398.3
2023-02-12T08:31:39.547Z,97393.7
2023-02-12T08:32:42.143Z,97393.3
2023-02-12T08:33:44.653Z,97392.3
2023-02-12T08:34:47.203Z,97395.8
2023-02-12T08:35:49.460Z,97397.8
2023-02-12T08:36:51.988Z,97397.8
2023-02-12T08:37:54.489Z,97394.4
2023-02-12T08:38:56.415Z,97391.5
2023-02-12T08:39:58.662Z,97389.7
2023-02-12T08:41:01.362Z,97389.4
2023-02-12T08:42:03.986Z,97389.9
2023-02-12T08:43:06.500Z,97390.8
2023-02-12T08:44:08.725Z,97392.8
2023-02-12T08:45:11.317Z,97395.5
2023-02-12T08:46:13.893Z,97388
2023-02-12T08:47:16.514Z,97392.3
2023-02-12T08:48:18.779Z,97391.7
2023-02-12T08:49:20.720Z,97391
2023-02-12T08:50:23.255Z,97387.5
2023-02-12T08:51:25.514Z,97387.9
2023-02-12T08:52:28.069Z,97388.4
2023-02-12T08:53:30.622Z,97391.3
2023-02-12T08:54:33.269Z,97394.8
2023-02-12T08:55:35.575Z,97392.4
2023-02-12T08:56:37.573Z,97391.9
2023-02-12T08:57:40.130Z,97389.1
2023-02-12T08:58:42.630Z,97388.4
2023-02-12T08:59:44.732Z,97389.8
2023-02-12T09:00:46.957Z,97384.2
2023-02-12T09:01:49.530Z,97385.3
2023-02-12T09:02:52.264Z,97383.8
2023-02-12T09:03:54.819Z,97383.6
2023-02-12T09:04:57.043Z,97391.2
2023-02-12T09:05:59.852Z,97392
2023-02-12T09:07:02.458Z,97392.5
2023-02-12T09:08:05.154Z,97390.6
2023-02-12T09:09:07.397Z,97389.7
2023-02-12T09:10:09.634Z,97388.9
2023-02-12T09:11:11.850Z,97391.4
2023-02-12T09:12:14.375Z,97392.7
2023-02-12T09:13:16.874Z,97390
2023-02-12T09:14:18.815Z,97390.2
2023-02-12T09:15:21.333Z,97385.8
2023-02-12T09:16:23.581Z,97391.2
2023-02-12T09:17:26.184Z,97388.6
2023-02-12T09:18:28.718Z,97385.7
2023-02-12T09:19:30.687Z,97385.8
2023-02-12T09:20:32.915Z,97389.5
2023-02-12T09:21:35.453Z,97387.6
2023-02-12T09:22:37.728Z,97384.1
2023-02-12T09:23:40.272Z,97389.8
2023-02-12T09:24:42.502Z,97388.4
2023-02-12T09:25:44.451Z,97391.1
2023-02-12T09:26:46.662Z,97393.2
2023-02-12T09:27:48.918Z,97396.8
2023-02-12T09:28:51.510Z,97396.3
2023-02-12T09:29:53.718Z,97399.7
2023-02-12T09:30:56.519Z,97401
2023-02-12T09:31:59.583Z,97398.6
2023-02-12T09:33:02.030Z,97400.3
2023-02-12T09:34:04.661Z,97400.6
2023-02-12T09:35:07.163Z,97400.1
2023-02-12T09:36:09.664Z,97397.1
2023-02-12T09:37:11.947Z,97397.6
2023-02-12T09:38:14.462Z,97398.5
2023-02-12T09:39:16.234Z,97399.6
2023-02-12T09:40:18.453Z,97396.3
2023-02-12T09:41:20.382Z,97400.3
2023-02-12T09:42:22.618Z,97394.2
2023-02-12T09:43:25.163Z,97393.5
2023-02-12T09:44:27.726Z,97394
2023-02-12T09:45:29.980Z,97390.9
2023-02-12T09:46:32.947Z,97395.1
2023-02-12T09:47:35.038Z,97395.2
2023-02-12T09:48:37.932Z,97398
2023-02-12T09:49:40.239Z,97396.5
2023-02-12T09:50:42.779Z,97397.1
2023-02-12T09:51:45.307Z,97392.5
2023-02-12T09:52:47.837Z,97396.4
2023-02-12T09:53:49.831Z,97399.8
2023-02-12T09:54:52.396Z,97400.3
2023-02-12T09:55:56.238Z,97398.3
2023-02-12T09:56:58.919Z,97401
2023-02-12T09:58:01.455Z,97400.1
2023-02-12T09:59:03.440Z,97401.8
2023-02-12T10:00:05.986Z,97395.8
2023-02-12T10:01:08.536Z,97396.9
2023-02-12T10:02:11.125Z,97396.2
2023-02-12T10:03:13.653Z,97401.8
2023-02-12T10:04:16.354Z,97397.9
2023-02-12T10:05:18.673Z,97397.1
2023-02-12T10:06:21.185Z,97398.7
2023-02-12T10:07:23.418Z,97398.4
2023-02-12T10:08:26.499Z,97395
2023-02-12T10:09:29.052Z,97394.3
2023-02-12T10:10:31.085Z,97395.8
2023-02-12T10:11:33.601Z,97395.8
2023-02-12T10:12:35.833Z,97397.4
2023-02-12T10:13:38.125Z,97401.2
2023-02-12T10:14:40.707Z,97399
2023-02-12T10:15:43.444Z,97397.8
2023-02-12T10:16:45.998Z,97400.6
2023-02-12T10:17:48.226Z,97405.6
2023-02-12T10:18:50.756Z,97404.3
2023-02-12T10:19:52.724Z,97404.8
2023-02-12T10:21:00.492Z,97403.4
2023-02-12T10:22:02.787Z,97405.3
2023-02-12T10:23:05.326Z,97402.4
2023-02-12T10:24:07.623Z,97401.1
2023-02-12T10:25:09.357Z,97400.5
2023-02-12T10:26:11.596Z,97401.4
2023-02-12T10:27:14.112Z,97402.9
2023-02-12T10:28:16.471Z,97400.8
2023-02-12T10:29:19.084Z,97398.5
2023-02-12T10:30:21.374Z,97401.8
2023-02-12T10:31:24.609Z,97403.2
2023-02-12T10:32:27.070Z,97400.5
2023-02-12T10:33:29.726Z,97396.6
2023-02-12T10:34:31.937Z,97391.4
2023-02-12T10:35:34.188Z,97398.6
2023-02-12T10:36:36.613Z,97394.7
2023-02-12T10:37:38.882Z,97397.4
2023-02-12T10:38:41.400Z,97391.5
2023-02-12T10:39:43.641Z,97393.4
2023-02-12T10:40:46.211Z,97394.7
2023-02-12T10:41:48.222Z,97393.5
2023-02-12T10:42:50.459Z,97392
2023-02-12T10:43:52.708Z,97394.5
2023-02-12T10:44:54.952Z,97399
2023-02-12T10:45:58.943Z,97392.5
2023-02-12T10:47:01.503Z,97393.2
2023-02-12T10:48:03.883Z,97386.2
2023-02-12T10:49:06.397Z,97389.3
2023-02-12T10:50:08.901Z,97390.1
2023-02-12T10:51:11.424Z,97388.2
2023-02-12T10:52:13.341Z,97386.6
2023-02-12T10:53:15.879Z,97388.1
2023-02-12T10:54:17.830Z,97390.8
2023-02-12T10:55:20.326Z,97386.4
2023-02-12T10:56:22.593Z,97382.1
2023-02-12T10:57:25.070Z,97380.8
2023-02-12T10:58:27.783Z,97382.6
2023-02-12T10:59:30.337Z,97379.7
2023-02-12T11:00:32.868Z,97387.9
2023-02-12T11:01:35.653Z,97380.5
2023-02-12T11:02:38.043Z,97384
2023-02-12T11:03:40.548Z,97387.1
2023-02-12T11:04:43.196Z,97387.1
2023-02-12T11:05:45.501Z,97378.5
2023-02-12T11:06:48.042Z,97384.8
2023-02-12T11:07:49.987Z,97381.4
2023-02-12T11:08:52.517Z,97377.5
2023-02-12T11:09:54.471Z,97381.1
2023-02-12T11:10:56.972Z,97380
2023-02-12T11:11:59.503Z,97380.2
2023-02-12T11:13:02.070Z,97378.7
2023-02-12T11:14:04.377Z,97382.5
2023-02-12T11:15:06.652Z,97379.1
2023-02-12T11:16:09.111Z,97380
2023-02-12T11:17:11.508Z,97377.4
2023-02-12T11:18:14.016Z,97376.7
2023-02-12T11:19:16.232Z,97373.5
2023-02-12T11:20:18.195Z,97373
2023-02-12T11:21:20.135Z,97372.1
2023-02-12T11:22:22.118Z,97373.4
2023-02-12T11:23:24.526Z,97374.3
2023-02-12T11:24:26.803Z,97367.3
2023-02-12T11:25:29.339Z,97372
2023-02-12T11:26:31.008Z,97369.1
2023-02-12T11:27:33.536Z,97368.4
2023-02-12T11:28:36.814Z,97369.3
2023-02-12T11:29:39.545Z,97368.9
2023-02-12T11:30:42.208Z,97371.2
2023-02-12T11:31:45.295Z,97369.6
2023-02-12T11:32:47.945Z,97370.1
2023-02-12T11:33:50.448Z,97370.6
2023-02-12T11:34:52.954Z,97367
2023-02-12T11:35:55.477Z,97367.8
2023-02-12T11:36:57.983Z,97370.7
2023-02-12T11:38:00.284Z,97366.8
2023-02-12T11:39:02.784Z,97368.7
2023-02-12T11:40:05.104Z,97369
2023-02-12T11:41:07.655Z,97368.6
2023-02-12T11:42:09.899Z,97366.4
2023-02-12T11:43:12.426Z,97360.3
2023-02-12T11:44:14.957Z,97366
2023-02-12T11:45:17.486Z,97366.1
2023-02-12T11:46:20.212Z,97369.2
2023-02-12T11:47:22.891Z,97366.5
2023-02-12T11:48:25.441Z,97364.9
2023-02-12T11:49:27.849Z,97367
2023-02-12T11:50:29.789Z,97361.8
2023-02-12T11:51:32.306Z,97367
2023-02-12T11:52:34.567Z,97364.1
2023-02-12T11:53:37.086Z,97358.2
2023-02-12T11:54:39.346Z,97362.3
2023-02-12T11:55:41.956Z,97363.8
2023-02-12T11:56:44.488Z,97365.5
2023-02-12T11:57:46.721Z,97364.5
2023-02-12T11:58:49.333Z,97365.1
2023-02-12T11:59:51.858Z,97367.3
2023-02-12T12:00:54.094Z,97363.7
2023-02-12T12:01:56.933Z,97359.2
2023-02-12T12:02:59.709Z,97358.5
2023-02-12T12:04:02.057Z,97361.9
2023-02-12T12:05:04.262Z,97354
2023-02-12T12:06:06.780Z,97356.7
2023-02-12T12:07:08.990Z,97355.2
2023-02-12T12:08:11.510Z,97351
2023-02-12T12:09:13.461Z,97351.6
2023-02-12T12:10:15.968Z,97349.3
2023-02-12T12:11:18.219Z,97351.1
2023-02-12T12:12:20.727Z,97351.4
2023-02-12T12:14:29.494Z,97352.2
2023-02-12T12:15:31.888Z,97352.5
2023-02-12T12:16:34.649Z,97352.3
2023-02-12T12:17:37.247Z,97355.1
2023-02-12T12:18:39.201Z,97350.7
2023-02-12T12:19:41.750Z,97352.1
2023-02-12T12:20:44.268Z,97352.1
2023-02-12T12:21:46.765Z,97348.6
2023-02-12T12:22:49.281Z,97348.1
2023-02-12T12:23:51.787Z,97350.7
2023-02-12T12:24:54.329Z,97343
2023-02-12T12:25:58.030Z,97340.8
2023-02-12T12:27:01.148Z,97337.4
2023-02-12T12:28:03.978Z,97339.4
2023-02-12T12:29:06.514Z,97341.1
2023-02-12T12:30:12.371Z,97336.2
2023-02-12T12:31:14.792Z,97331
2023-02-12T12:32:17.152Z,97336.3
2023-02-12T12:33:19.383Z,97332.7
2023-02-12T12:34:21.894Z,97338.6
2023-02-12T12:35:24.439Z,97338.8
2023-02-12T12:36:26.424Z,97334.2
2023-02-12T12:37:28.665Z,97336
2023-02-12T12:38:30.324Z,97326.9
2023-02-12T12:39:32.834Z,97322.9
2023-02-12T12:40:35.093Z,97328.1
2023-02-12T12:41:37.333Z,97322.8
2023-02-12T12:42:39.845Z,97320.4
2023-02-12T12:43:42.071Z,97319.8